sensor_id;sensor_type;location;lat;lon;timestamp;temperature;humidity
15983;DHT22;14442;50.196;8.096;2023-02-28T00:02:20;22.00;36.10
15983;DHT22;14442;50.196;8.096;2023-02-28T00:04:46;22.00;35.90
15983;DHT22;14442;50.196;8.096;2023-02-28T00:07:30;22.00;35.90
15983;DHT22;14442;50.196;8.096;2023-02-28T00:09:57;21.90;36.00
15983;DHT22;14442;50.196;8.096;2023-02-28T00:12:24;21.90;36.20
15983;DHT22;14442;50.196;8.096;2023-02-28T00:14:51;21.90;36.20
15983;DHT22;14442;50.196;8.096;2023-02-28T00:17:18;21.90;36.10
15983;DHT22;14442;50.196;8.096;2023-02-28T00:19:46;21.80;36.00
15983;DHT22;14442;50.196;8.096;2023-02-28T00:22:13;21.80;36.00
15983;DHT22;14442;50.196;8.096;2023-02-28T00:24:41;21.80;36.10
15983;DHT22;14442;50.196;8.096;2023-02-28T00:27:08;21.70;35.90
15983;DHT22;14442;50.196;8.096;2023-02-28T00:29:35;21.70;35.90
15983;DHT22;14442;50.196;8.096;2023-02-28T00:32:02;21.60;35.80
15983;DHT22;14442;50.196;8.096;2023-02-28T00:34:29;21.60;35.90
15983;DHT22;14442;50.196;8.096;2023-02-28T00:36:56;21.60;35.90
15983;DHT22;14442;50.196;8.096;2023-02-28T00:39:22;21.50;35.80
15983;DHT22;14442;50.196;8.096;2023-02-28T00:41:50;21.50;35.80
15983;DHT22;14442;50.196;8.096;2023-02-28T00:44:17;21.60;35.80
15983;DHT22;14442;50.196;8.096;2023-02-28T00:46:46;21.50;35.80
15983;DHT22;14442;50.196;8.096;2023-02-28T00:49:13;21.50;35.80
15983;DHT22;14442;50.196;8.096;2023-02-28T00:51:40;21.50;35.80
15983;DHT22;14442;50.196;8.096;2023-02-28T00:54:06;21.40;35.70
15983;DHT22;14442;50.196;8.096;2023-02-28T00:56:33;21.40;35.80
15983;DHT22;14442;50.196;8.096;2023-02-28T00:59:01;21.40;35.80
15983;DHT22;14442;50.196;8.096;2023-02-28T01:01:28;21.40;35.70
15983;DHT22;14442;50.196;8.096;2023-02-28T01:03:54;21.40;35.70
15983;DHT22;14442;50.196;8.096;2023-02-28T01:06:21;21.40;35.60
15983;DHT22;14442;50.196;8.096;2023-02-28T01:08:48;21.40;35.60
15983;DHT22;14442;50.196;8.096;2023-02-28T01:11:17;21.40;35.50
15983;DHT22;14442;50.196;8.096;2023-02-28T01:13:45;21.40;35.50
15983;DHT22;14442;50.196;8.096;2023-02-28T01:16:13;21.40;35.50
15983;DHT22;14442;50.196;8.096;2023-02-28T01:18:40;21.40;35.40
15983;DHT22;14442;50.196;8.096;2023-02-28T01:21:08;21.40;35.40
15983;DHT22;14442;50.196;8.096;2023-02-28T01:23:35;21.40;35.40
15983;DHT22;14442;50.196;8.096;2023-02-28T01:26:06;21.40;35.40
15983;DHT22;14442;50.196;8.096;2023-02-28T01:28:33;21.40;35.30
15983;DHT22;14442;50.196;8.096;2023-02-28T01:30:59;21.40;35.30
15983;DHT22;14442;50.196;8.096;2023-02-28T01:33:28;21.40;35.30
15983;DHT22;14442;50.196;8.096;2023-02-28T01:35:57;21.40;35.20
15983;DHT22;14442;50.196;8.096;2023-02-28T01:38:24;21.40;35.20
15983;DHT22;14442;50.196;8.096;2023-02-28T01:40:51;21.40;35.10
15983;DHT22;14442;50.196;8.096;2023-02-28T01:43:21;21.40;35.20
15983;DHT22;14442;50.196;8.096;2023-02-28T01:45:49;21.40;35.10
15983;DHT22;14442;50.196;8.096;2023-02-28T01:48:16;21.40;35.10
15983;DHT22;14442;50.196;8.096;2023-02-28T01:50:45;21.40;35.10
15983;DHT22;14442;50.196;8.096;2023-02-28T01:53:16;21.40;35.10
15983;DHT22;14442;50.196;8.096;2023-02-28T01:55:47;21.40;35.00
15983;DHT22;14442;50.196;8.096;2023-02-28T01:58:15;21.40;35.00
15983;DHT22;14442;50.196;8.096;2023-02-28T02:00:42;21.40;35.00
15983;DHT22;14442;50.196;8.096;2023-02-28T02:03:10;21.40;34.90
15983;DHT22;14442;50.196;8.096;2023-02-28T02:05:39;21.40;34.90
15983;DHT22;14442;50.196;8.096;2023-02-28T02:08:10;21.40;34.90
15983;DHT22;14442;50.196;8.096;2023-02-28T02:10:41;21.40;34.90
15983;DHT22;14442;50.196;8.096;2023-02-28T02:13:29;21.40;34.80
15983;DHT22;14442;50.196;8.096;2023-02-28T02:16:06;21.40;34.80
15983;DHT22;14442;50.196;8.096;2023-02-28T02:18:39;21.40;34.80
15983;DHT22;14442;50.196;8.096;2023-02-28T02:21:50;21.40;34.80
15983;DHT22;14442;50.196;8.096;2023-02-28T02:24:58;21.40;34.70
15983;DHT22;14442;50.196;8.096;2023-02-28T02:27:45;21.40;34.60
15983;DHT22;14442;50.196;8.096;2023-02-28T02:36:16;21.40;34.60
15983;DHT22;14442;50.196;8.096;2023-02-28T02:38:49;21.40;34.60
15983;DHT22;14442;50.196;8.096;2023-02-28T02:41:22;21.40;34.60
15983;DHT22;14442;50.196;8.096;2023-02-28T02:43:52;21.40;34.60
15983;DHT22;14442;50.196;8.096;2023-02-28T02:46:23;21.40;34.60
15983;DHT22;14442;50.196;8.096;2023-02-28T02:48:51;21.40;34.60
15983;DHT22;14442;50.196;8.096;2023-02-28T02:51:22;21.40;34.60
15983;DHT22;14442;50.196;8.096;2023-02-28T02:53:52;21.40;34.60
15983;DHT22;14442;50.196;8.096;2023-02-28T02:56:23;21.40;34.60
15983;DHT22;14442;50.196;8.096;2023-02-28T02:58:54;21.40;34.50
15983;DHT22;14442;50.196;8.096;2023-02-28T03:01:24;21.40;34.60
15983;DHT22;14442;50.196;8.096;2023-02-28T03:03:56;21.40;34.60
15983;DHT22;14442;50.196;8.096;2023-02-28T03:06:25;21.40;34.60
15983;DHT22;14442;50.196;8.096;2023-02-28T03:08:52;21.40;34.60
15983;DHT22;14442;50.196;8.096;2023-02-28T03:11:19;21.40;35.30
15983;DHT22;14442;50.196;8.096;2023-02-28T03:13:54;21.40;35.00
15983;DHT22;14442;50.196;8.096;2023-02-28T03:16:33;21.30;34.60
15983;DHT22;14442;50.196;8.096;2023-02-28T03:19:15;21.30;34.60
15983;DHT22;14442;50.196;8.096;2023-02-28T03:21:52;21.30;34.50
15983;DHT22;14442;50.196;8.096;2023-02-28T03:24:27;21.30;34.60
15983;DHT22;14442;50.196;8.096;2023-02-28T03:27:04;21.40;34.60
15983;DHT22;14442;50.196;8.096;2023-02-28T03:29:35;21.30;34.60
15983;DHT22;14442;50.196;8.096;2023-02-28T03:32:07;21.30;34.60
15983;DHT22;14442;50.196;8.096;2023-02-28T03:34:44;21.30;34.60
15983;DHT22;14442;50.196;8.096;2023-02-28T03:37:16;21.30;34.60
15983;DHT22;14442;50.196;8.096;2023-02-28T03:39:47;21.30;34.60
15983;DHT22;14442;50.196;8.096;2023-02-28T03:42:17;21.30;35.30
15983;DHT22;14442;50.196;8.096;2023-02-28T03:44:47;21.20;34.60
15983;DHT22;14442;50.196;8.096;2023-02-28T03:47:19;21.20;34.60
15983;DHT22;14442;50.196;8.096;2023-02-28T03:49:52;21.20;34.60
15983;DHT22;14442;50.196;8.096;2023-02-28T03:52:23;21.20;34.60
15983;DHT22;14442;50.196;8.096;2023-02-28T03:54:54;21.20;34.60
15983;DHT22;14442;50.196;8.096;2023-02-28T03:57:27;21.20;34.60
15983;DHT22;14442;50.196;8.096;2023-02-28T03:59:59;21.20;34.50
15983;DHT22;14442;50.196;8.096;2023-02-28T04:02:29;21.20;34.50
15983;DHT22;14442;50.196;8.096;2023-02-28T04:04:56;21.10;34.50
15983;DHT22;14442;50.196;8.096;2023-02-28T04:07:24;21.20;34.60
15983;DHT22;14442;50.196;8.096;2023-02-28T04:09:51;21.10;34.50
15983;DHT22;14442;50.196;8.096;2023-02-28T04:12:18;21.10;34.50
15983;DHT22;14442;50.196;8.096;2023-02-28T04:14:46;21.10;35.20
15983;DHT22;14442;50.196;8.096;2023-02-28T04:17:13;21.10;34.50
15983;DHT22;14442;50.196;8.096;2023-02-28T04:19:39;21.10;34.60
15983;DHT22;14442;50.196;8.096;2023-02-28T04:22:07;21.00;34.50
15983;DHT22;14442;50.196;8.096;2023-02-28T04:24:35;21.00;34.50
15983;DHT22;14442;50.196;8.096;2023-02-28T04:27:02;21.00;34.50
15983;DHT22;14442;50.196;8.096;2023-02-28T04:29:30;21.00;34.50
15983;DHT22;14442;50.196;8.096;2023-02-28T04:31:58;21.00;34.50
15983;DHT22;14442;50.196;8.096;2023-02-28T04:34:26;21.00;34.50
15983;DHT22;14442;50.196;8.096;2023-02-28T04:36:54;20.90;34.50
15983;DHT22;14442;50.196;8.096;2023-02-28T04:39:21;20.90;34.50
15983;DHT22;14442;50.196;8.096;2023-02-28T04:41:49;20.90;34.50
15983;DHT22;14442;50.196;8.096;2023-02-28T04:44:17;20.90;34.50
15983;DHT22;14442;50.196;8.096;2023-02-28T04:46:44;20.80;34.50
15983;DHT22;14442;50.196;8.096;2023-02-28T04:49:11;20.80;34.50
15983;DHT22;14442;50.196;8.096;2023-02-28T04:51:38;20.90;34.60
15983;DHT22;14442;50.196;8.096;2023-02-28T04:54:05;20.80;34.50
15983;DHT22;14442;50.196;8.096;2023-02-28T04:56:33;20.80;34.50
15983;DHT22;14442;50.196;8.096;2023-02-28T04:59:01;20.80;34.50
15983;DHT22;14442;50.196;8.096;2023-02-28T05:01:29;20.80;34.60
15983;DHT22;14442;50.196;8.096;2023-02-28T05:03:58;20.70;34.50
15983;DHT22;14442;50.196;8.096;2023-02-28T05:06:26;20.80;34.60
15983;DHT22;14442;50.196;8.096;2023-02-28T05:08:53;20.80;34.70
15983;DHT22;14442;50.196;8.096;2023-02-28T05:11:21;20.70;34.50
15983;DHT22;14442;50.196;8.096;2023-02-28T05:13:49;20.70;34.60
15983;DHT22;14442;50.196;8.096;2023-02-28T05:16:18;20.70;34.50
15983;DHT22;14442;50.196;8.096;2023-02-28T05:18:45;20.60;34.40
15983;DHT22;14442;50.196;8.096;2023-02-28T05:21:24;20.60;34.30
15983;DHT22;14442;50.196;8.096;2023-02-28T05:23:51;20.70;35.20
15983;DHT22;14442;50.196;8.096;2023-02-28T05:26:18;20.70;34.50
15983;DHT22;14442;50.196;8.096;2023-02-28T05:28:45;20.60;34.40
15983;DHT22;14442;50.196;8.096;2023-02-28T05:31:12;20.60;34.40
15983;DHT22;14442;50.196;8.096;2023-02-28T05:33:40;20.60;34.40
15983;DHT22;14442;50.196;8.096;2023-02-28T05:36:07;20.60;34.50
15983;DHT22;14442;50.196;8.096;2023-02-28T05:38:34;20.60;34.40
15983;DHT22;14442;50.196;8.096;2023-02-28T05:41:05;20.60;34.40
15983;DHT22;14442;50.196;8.096;2023-02-28T05:43:32;20.60;34.40
15983;DHT22;14442;50.196;8.096;2023-02-28T05:45:58;20.60;34.50
15983;DHT22;14442;50.196;8.096;2023-02-28T05:48:25;20.60;34.40
15983;DHT22;14442;50.196;8.096;2023-02-28T05:50:53;20.50;34.40
15983;DHT22;14442;50.196;8.096;2023-02-28T05:53:20;20.50;34.40
15983;DHT22;14442;50.196;8.096;2023-02-28T05:55:47;20.50;34.40
15983;DHT22;14442;50.196;8.096;2023-02-28T05:58:20;20.50;34.40
15983;DHT22;14442;50.196;8.096;2023-02-28T06:00:47;20.50;34.50
15983;DHT22;14442;50.196;8.096;2023-02-28T06:03:13;20.40;34.30
15983;DHT22;14442;50.196;8.096;2023-02-28T06:05:40;20.40;34.50
15983;DHT22;14442;50.196;8.096;2023-02-28T06:08:08;20.40;34.40
15983;DHT22;14442;50.196;8.096;2023-02-28T06:10:35;20.40;34.40
15983;DHT22;14442;50.196;8.096;2023-02-28T06:13:02;20.30;34.20
15983;DHT22;14442;50.196;8.096;2023-02-28T06:15:29;20.30;34.20
15983;DHT22;14442;50.196;8.096;2023-02-28T06:17:57;20.30;34.30
15983;DHT22;14442;50.196;8.096;2023-02-28T06:20:25;20.20;34.30
15983;DHT22;14442;50.196;8.096;2023-02-28T06:22:54;20.30;34.10
15983;DHT22;14442;50.196;8.096;2023-02-28T06:25:22;20.30;34.00
15983;DHT22;14442;50.196;8.096;2023-02-28T06:27:49;20.30;34.10
15983;DHT22;14442;50.196;8.096;2023-02-28T06:30:16;20.20;33.90
15983;DHT22;14442;50.196;8.096;2023-02-28T06:32:43;20.30;34.10
15983;DHT22;14442;50.196;8.096;2023-02-28T06:35:10;20.30;34.00
15983;DHT22;14442;50.196;8.096;2023-02-28T06:37:36;20.30;34.00
15983;DHT22;14442;50.196;8.096;2023-02-28T06:40:04;20.30;33.90
15983;DHT22;14442;50.196;8.096;2023-02-28T06:42:34;20.30;33.90
15983;DHT22;14442;50.196;8.096;2023-02-28T06:45:01;20.40;33.90
15983;DHT22;14442;50.196;8.096;2023-02-28T06:47:34;20.40;33.90
15983;DHT22;14442;50.196;8.096;2023-02-28T06:50:01;20.30;33.90
15983;DHT22;14442;50.196;8.096;2023-02-28T06:52:27;20.30;34.00
15983;DHT22;14442;50.196;8.096;2023-02-28T06:54:54;20.30;33.90
15983;DHT22;14442;50.196;8.096;2023-02-28T06:57:25;20.30;34.00
15983;DHT22;14442;50.196;8.096;2023-02-28T06:59:53;20.30;34.10
15983;DHT22;14442;50.196;8.096;2023-02-28T07:02:19;20.20;34.00
15983;DHT22;14442;50.196;8.096;2023-02-28T07:04:46;20.30;34.10
15983;DHT22;14442;50.196;8.096;2023-02-28T07:07:13;20.30;34.10
15983;DHT22;14442;50.196;8.096;2023-02-28T07:09:39;20.30;34.10
15983;DHT22;14442;50.196;8.096;2023-02-28T07:12:06;20.30;34.10
15983;DHT22;14442;50.196;8.096;2023-02-28T07:14:33;20.30;34.10
15983;DHT22;14442;50.196;8.096;2023-02-28T07:17:01;20.30;34.10
15983;DHT22;14442;50.196;8.096;2023-02-28T07:19:27;20.30;34.10
15983;DHT22;14442;50.196;8.096;2023-02-28T07:21:54;20.30;34.10
15983;DHT22;14442;50.196;8.096;2023-02-28T07:24:21;20.30;34.00
15983;DHT22;14442;50.196;8.096;2023-02-28T07:26:51;20.40;34.10
15983;DHT22;14442;50.196;8.096;2023-02-28T07:29:17;20.30;34.10
15983;DHT22;14442;50.196;8.096;2023-02-28T07:31:44;20.40;34.10
15983;DHT22;14442;50.196;8.096;2023-02-28T07:34:13;20.40;34.20
15983;DHT22;14442;50.196;8.096;2023-02-28T07:36:40;20.40;34.10
15983;DHT22;14442;50.196;8.096;2023-02-28T07:39:06;20.40;34.10
15983;DHT22;14442;50.196;8.096;2023-02-28T07:41:34;20.40;34.20
15983;DHT22;14442;50.196;8.096;2023-02-28T07:44:04;20.40;34.10
15983;DHT22;14442;50.196;8.096;2023-02-28T07:46:31;20.40;34.10
15983;DHT22;14442;50.196;8.096;2023-02-28T07:49:00;20.40;34.10
15983;DHT22;14442;50.196;8.096;2023-02-28T07:51:29;20.40;34.20
15983;DHT22;14442;50.196;8.096;2023-02-28T07:53:56;20.40;34.10
15983;DHT22;14442;50.196;8.096;2023-02-28T07:56:23;20.50;34.10
15983;DHT22;14442;50.196;8.096;2023-02-28T07:58:50;20.50;34.10
15983;DHT22;14442;50.196;8.096;2023-02-28T08:01:16;20.60;34.00
15983;DHT22;14442;50.196;8.096;2023-02-28T08:03:44;20.60;33.90
15983;DHT22;14442;50.196;8.096;2023-02-28T08:06:18;20.70;33.80
15983;DHT22;14442;50.196;8.096;2023-02-28T08:08:47;20.80;33.90
15983;DHT22;14442;50.196;8.096;2023-02-28T08:11:14;20.80;33.80
15983;DHT22;14442;50.196;8.096;2023-02-28T08:13:41;20.80;33.80
15983;DHT22;14442;50.196;8.096;2023-02-28T08:16:09;20.90;34.10
15983;DHT22;14442;50.196;8.096;2023-02-28T08:18:36;20.90;34.40
15983;DHT22;14442;50.196;8.096;2023-02-28T08:21:06;20.90;34.40
15983;DHT22;14442;50.196;8.096;2023-02-28T08:23:33;20.90;34.60
15983;DHT22;14442;50.196;8.096;2023-02-28T08:26:02;21.00;35.50
15983;DHT22;14442;50.196;8.096;2023-02-28T08:28:29;21.00;35.60
15983;DHT22;14442;50.196;8.096;2023-02-28T08:30:55;21.00;36.10
15983;DHT22;14442;50.196;8.096;2023-02-28T08:33:23;21.00;35.90
15983;DHT22;14442;50.196;8.096;2023-02-28T08:35:52;21.00;35.80
15983;DHT22;14442;50.196;8.096;2023-02-28T08:38:19;21.00;36.00
15983;DHT22;14442;50.196;8.096;2023-02-28T08:40:46;21.00;35.90
15983;DHT22;14442;50.196;8.096;2023-02-28T08:43:14;21.00;35.90
15983;DHT22;14442;50.196;8.096;2023-02-28T08:45:40;21.00;35.80
15983;DHT22;14442;50.196;8.096;2023-02-28T08:48:07;21.00;35.80
15983;DHT22;14442;50.196;8.096;2023-02-28T08:50:34;21.00;35.70
15983;DHT22;14442;50.196;8.096;2023-02-28T08:53:00;21.00;37.30
15983;DHT22;14442;50.196;8.096;2023-02-28T08:55:27;21.00;37.20
15983;DHT22;14442;50.196;8.096;2023-02-28T08:57:54;21.00;37.40
15983;DHT22;14442;50.196;8.096;2023-02-28T09:00:22;21.00;37.50
15983;DHT22;14442;50.196;8.096;2023-02-28T09:02:49;21.00;37.10
15983;DHT22;14442;50.196;8.096;2023-02-28T09:05:16;21.00;37.20
15983;DHT22;14442;50.196;8.096;2023-02-28T09:07:43;21.00;37.40
15983;DHT22;14442;50.196;8.096;2023-02-28T09:10:10;21.00;36.70
15983;DHT22;14442;50.196;8.096;2023-02-28T09:12:37;21.00;36.80
15983;DHT22;14442;50.196;8.096;2023-02-28T09:15:04;21.00;36.60
15983;DHT22;14442;50.196;8.096;2023-02-28T09:17:33;21.00;36.60
15983;DHT22;14442;50.196;8.096;2023-02-28T09:19:59;21.10;36.70
15983;DHT22;14442;50.196;8.096;2023-02-28T09:22:27;21.10;37.00
15983;DHT22;14442;50.196;8.096;2023-02-28T09:24:54;21.10;36.90
15983;DHT22;14442;50.196;8.096;2023-02-28T09:27:20;21.10;36.90
15983;DHT22;14442;50.196;8.096;2023-02-28T09:29:47;21.10;37.00
15983;DHT22;14442;50.196;8.096;2023-02-28T09:32:14;21.10;36.70
15983;DHT22;14442;50.196;8.096;2023-02-28T09:34:42;21.10;37.40
15983;DHT22;14442;50.196;8.096;2023-02-28T09:37:09;21.10;37.30
15983;DHT22;14442;50.196;8.096;2023-02-28T09:39:35;21.10;37.00
15983;DHT22;14442;50.196;8.096;2023-02-28T09:42:02;21.10;36.80
15983;DHT22;14442;50.196;8.096;2023-02-28T09:44:33;21.20;36.70
15983;DHT22;14442;50.196;8.096;2023-02-28T09:47:07;21.30;37.40
15983;DHT22;14442;50.196;8.096;2023-02-28T09:49:39;21.30;37.50
15983;DHT22;14442;50.196;8.096;2023-02-28T09:52:11;21.30;36.70
15983;DHT22;14442;50.196;8.096;2023-02-28T09:54:39;21.30;36.50
15983;DHT22;14442;50.196;8.096;2023-02-28T09:57:08;21.40;36.50
15983;DHT22;14442;50.196;8.096;2023-02-28T09:59:44;21.40;37.50
15983;DHT22;14442;50.196;8.096;2023-02-28T10:02:46;21.50;37.40
15983;DHT22;14442;50.196;8.096;2023-02-28T10:05:17;21.50;36.80
15983;DHT22;14442;50.196;8.096;2023-02-28T10:08:02;21.50;36.50
15983;DHT22;14442;50.196;8.096;2023-02-28T10:10:36;21.60;36.70
15983;DHT22;14442;50.196;8.096;2023-02-28T10:13:06;21.60;36.70
15983;DHT22;14442;50.196;8.096;2023-02-28T10:15:38;21.60;36.60
15983;DHT22;14442;50.196;8.096;2023-02-28T10:18:09;21.60;36.70
15983;DHT22;14442;50.196;8.096;2023-02-28T10:20:39;21.60;36.80
15983;DHT22;14442;50.196;8.096;2023-02-28T10:23:13;21.70;36.50
15983;DHT22;14442;50.196;8.096;2023-02-28T10:25:44;21.70;36.30
15983;DHT22;14442;50.196;8.096;2023-02-28T10:28:15;21.70;35.80
15983;DHT22;14442;50.196;8.096;2023-02-28T10:30:45;21.70;35.40
15983;DHT22;14442;50.196;8.096;2023-02-28T10:33:18;21.70;35.20
15983;DHT22;14442;50.196;8.096;2023-02-28T10:35:45;21.80;35.00
15983;DHT22;14442;50.196;8.096;2023-02-28T10:38:18;21.80;34.90
15983;DHT22;14442;50.196;8.096;2023-02-28T10:40:45;21.80;34.80
15983;DHT22;14442;50.196;8.096;2023-02-28T10:43:20;21.80;34.80
15983;DHT22;14442;50.196;8.096;2023-02-28T10:45:55;21.80;35.40
15983;DHT22;14442;50.196;8.096;2023-02-28T10:48:30;21.80;35.50
15983;DHT22;14442;50.196;8.096;2023-02-28T10:50:58;21.80;35.20
15983;DHT22;14442;50.196;8.096;2023-02-28T10:53:32;21.90;35.00
15983;DHT22;14442;50.196;8.096;2023-02-28T10:56:02;21.90;34.90
15983;DHT22;14442;50.196;8.096;2023-02-28T10:58:31;22.00;34.80
15983;DHT22;14442;50.196;8.096;2023-02-28T11:00:59;21.90;34.80
15983;DHT22;14442;50.196;8.096;2023-02-28T11:03:31;21.90;34.70
15983;DHT22;14442;50.196;8.096;2023-02-28T11:06:03;21.90;34.80
15983;DHT22;14442;50.196;8.096;2023-02-28T11:08:32;21.90;34.80
15983;DHT22;14442;50.196;8.096;2023-02-28T11:11:04;21.90;34.90
15983;DHT22;14442;50.196;8.096;2023-02-28T11:13:33;22.00;36.00
15983;DHT22;14442;50.196;8.096;2023-02-28T11:16:03;22.00;35.30
15983;DHT22;14442;50.196;8.096;2023-02-28T11:18:36;22.00;34.80
15983;DHT22;14442;50.196;8.096;2023-02-28T11:21:04;22.00;34.50
15983;DHT22;14442;50.196;8.096;2023-02-28T11:23:35;21.90;34.30
15983;DHT22;14442;50.196;8.096;2023-02-28T11:26:04;21.90;34.30
15983;DHT22;14442;50.196;8.096;2023-02-28T11:28:37;22.00;35.10
15983;DHT22;14442;50.196;8.096;2023-02-28T11:31:14;22.10;36.30
15983;DHT22;14442;50.196;8.096;2023-02-28T11:33:43;22.20;35.90
15983;DHT22;14442;50.196;8.096;2023-02-28T11:36:12;22.20;35.30
15983;DHT22;14442;50.196;8.096;2023-02-28T11:38:41;22.10;35.10
15983;DHT22;14442;50.196;8.096;2023-02-28T11:44:23;22.20;35.20
15983;DHT22;14442;50.196;8.096;2023-02-28T11:46:57;22.30;35.30
15983;DHT22;14442;50.196;8.096;2023-02-28T11:49:32;22.30;35.60
15983;DHT22;14442;50.196;8.096;2023-02-28T11:52:02;22.40;35.50
15983;DHT22;14442;50.196;8.096;2023-02-28T11:54:51;22.40;35.70
15983;DHT22;14442;50.196;8.096;2023-02-28T11:57:29;22.40;35.70
15983;DHT22;14442;50.196;8.096;2023-02-28T12:00:03;22.50;35.90
15983;DHT22;14442;50.196;8.096;2023-02-28T12:02:36;22.50;36.00
15983;DHT22;14442;50.196;8.096;2023-02-28T12:05:20;22.50;36.20
15983;DHT22;14442;50.196;8.096;2023-02-28T12:07:58;22.50;36.30
15983;DHT22;14442;50.196;8.096;2023-02-28T12:10:29;22.50;36.20
15983;DHT22;14442;50.196;8.096;2023-02-28T12:13:04;22.50;36.20
15983;DHT22;14442;50.196;8.096;2023-02-28T12:16:07;22.50;36.00
15983;DHT22;14442;50.196;8.096;2023-02-28T12:18:59;22.50;36.00
15983;DHT22;14442;50.196;8.096;2023-02-28T12:21:34;22.50;35.90
15983;DHT22;14442;50.196;8.096;2023-02-28T12:24:19;22.50;35.90
15983;DHT22;14442;50.196;8.096;2023-02-28T12:26:53;22.50;35.80
15983;DHT22;14442;50.196;8.096;2023-02-28T12:29:24;22.50;36.20
15983;DHT22;14442;50.196;8.096;2023-02-28T12:31:56;22.50;36.30
15983;DHT22;14442;50.196;8.096;2023-02-28T12:34:28;22.60;35.90
15983;DHT22;14442;50.196;8.096;2023-02-28T12:36:59;22.50;35.70
15983;DHT22;14442;50.196;8.096;2023-02-28T12:39:30;22.40;35.80
15983;DHT22;14442;50.196;8.096;2023-02-28T12:42:03;22.40;35.90
15983;DHT22;14442;50.196;8.096;2023-02-28T12:44:35;22.40;35.80
15983;DHT22;14442;50.196;8.096;2023-02-28T12:47:09;22.40;35.90
15983;DHT22;14442;50.196;8.096;2023-02-28T12:49:41;22.50;36.50
15983;DHT22;14442;50.196;8.096;2023-02-28T12:52:10;22.50;35.90
15983;DHT22;14442;50.196;8.096;2023-02-28T12:54:46;22.50;35.70
15983;DHT22;14442;50.196;8.096;2023-02-28T12:57:22;22.50;35.80
15983;DHT22;14442;50.196;8.096;2023-02-28T12:59:55;22.50;35.90
15983;DHT22;14442;50.196;8.096;2023-02-28T13:05:32;22.50;35.80
15983;DHT22;14442;50.196;8.096;2023-02-28T13:11:04;22.50;36.40
15983;DHT22;14442;50.196;8.096;2023-02-28T13:13:32;22.50;35.80
15983;DHT22;14442;50.196;8.096;2023-02-28T13:16:04;22.60;36.00
15983;DHT22;14442;50.196;8.096;2023-02-28T13:18:36;22.60;35.90
15983;DHT22;14442;50.196;8.096;2023-02-28T13:21:06;22.60;35.80
15983;DHT22;14442;50.196;8.096;2023-02-28T13:23:57;22.60;35.80
15983;DHT22;14442;50.196;8.096;2023-02-28T13:29:35;22.60;35.60
15983;DHT22;14442;50.196;8.096;2023-02-28T13:32:35;22.60;35.10
15983;DHT22;14442;50.196;8.096;2023-02-28T13:35:44;22.60;34.70
15983;DHT22;14442;50.196;8.096;2023-02-28T13:38:33;22.60;34.40
15983;DHT22;14442;50.196;8.096;2023-02-28T13:44:06;22.80;34.10
15983;DHT22;14442;50.196;8.096;2023-02-28T13:46:37;23.00;35.00
15983;DHT22;14442;50.196;8.096;2023-02-28T13:49:25;23.10;35.70
15983;DHT22;14442;50.196;8.096;2023-02-28T13:51:55;23.10;37.50
15983;DHT22;14442;50.196;8.096;2023-02-28T13:54:37;23.10;38.60
15983;DHT22;14442;50.196;8.096;2023-02-28T13:57:19;23.20;38.80
15983;DHT22;14442;50.196;8.096;2023-02-28T13:59:57;23.20;39.40
15983;DHT22;14442;50.196;8.096;2023-02-28T14:02:45;23.30;39.30
15983;DHT22;14442;50.196;8.096;2023-02-28T14:05:15;23.40;39.50
15983;DHT22;14442;50.196;8.096;2023-02-28T14:07:46;23.40;40.00
15983;DHT22;14442;50.196;8.096;2023-02-28T14:10:24;23.60;40.40
15983;DHT22;14442;50.196;8.096;2023-02-28T14:12:56;23.60;40.40
15983;DHT22;14442;50.196;8.096;2023-02-28T14:15:36;23.60;40.10
15983;DHT22;14442;50.196;8.096;2023-02-28T14:18:16;23.60;39.70
15983;DHT22;14442;50.196;8.096;2023-02-28T14:20:45;23.60;39.40
15983;DHT22;14442;50.196;8.096;2023-02-28T14:23:20;23.70;39.40
15983;DHT22;14442;50.196;8.096;2023-02-28T14:25:56;23.70;39.10
15983;DHT22;14442;50.196;8.096;2023-02-28T14:28:45;23.70;38.90
15983;DHT22;14442;50.196;8.096;2023-02-28T14:31:18;23.70;38.80
15983;DHT22;14442;50.196;8.096;2023-02-28T14:34:03;23.70;38.60
15983;DHT22;14442;50.196;8.096;2023-02-28T14:36:33;23.70;38.40
15983;DHT22;14442;50.196;8.096;2023-02-28T14:39:05;23.70;38.10
15983;DHT22;14442;50.196;8.096;2023-02-28T14:41:33;23.70;38.50
15983;DHT22;14442;50.196;8.096;2023-02-28T14:44:12;23.70;38.40
15983;DHT22;14442;50.196;8.096;2023-02-28T14:46:40;23.50;37.80
15983;DHT22;14442;50.196;8.096;2023-02-28T14:49:14;23.40;37.70
15983;DHT22;14442;50.196;8.096;2023-02-28T14:51:42;23.30;37.60
15983;DHT22;14442;50.196;8.096;2023-02-28T14:54:14;23.30;37.50
15983;DHT22;14442;50.196;8.096;2023-02-28T14:56:41;23.30;37.70
15983;DHT22;14442;50.196;8.096;2023-02-28T14:59:24;23.30;37.70
15983;DHT22;14442;50.196;8.096;2023-02-28T15:01:51;23.30;37.10
15983;DHT22;14442;50.196;8.096;2023-02-28T15:04:24;23.30;37.00
15983;DHT22;14442;50.196;8.096;2023-02-28T15:07:07;23.30;37.10
15983;DHT22;14442;50.196;8.096;2023-02-28T15:09:34;23.40;37.20
15983;DHT22;14442;50.196;8.096;2023-02-28T15:12:01;23.40;36.40
15983;DHT22;14442;50.196;8.096;2023-02-28T15:14:28;23.50;36.30
15983;DHT22;14442;50.196;8.096;2023-02-28T15:16:59;23.50;36.30
15983;DHT22;14442;50.196;8.096;2023-02-28T15:19:29;23.60;36.20
15983;DHT22;14442;50.196;8.096;2023-02-28T15:22:00;23.60;36.10
15983;DHT22;14442;50.196;8.096;2023-02-28T15:24:35;23.60;36.10
15983;DHT22;14442;50.196;8.096;2023-02-28T15:27:05;23.60;36.10
15983;DHT22;14442;50.196;8.096;2023-02-28T15:29:42;23.60;36.30
15983;DHT22;14442;50.196;8.096;2023-02-28T15:32:23;23.60;36.10
15983;DHT22;14442;50.196;8.096;2023-02-28T15:34:52;23.60;36.00
15983;DHT22;14442;50.196;8.096;2023-02-28T15:37:37;23.50;35.90
15983;DHT22;14442;50.196;8.096;2023-02-28T15:40:11;23.40;35.70
15983;DHT22;14442;50.196;8.096;2023-02-28T15:42:39;23.30;35.70
15983;DHT22;14442;50.196;8.096;2023-02-28T15:45:27;23.30;35.70
15983;DHT22;14442;50.196;8.096;2023-02-28T15:47:54;23.30;35.90
15983;DHT22;14442;50.196;8.096;2023-02-28T15:50:22;23.30;35.40
15983;DHT22;14442;50.196;8.096;2023-02-28T15:52:50;23.30;35.40
15983;DHT22;14442;50.196;8.096;2023-02-28T15:55:19;23.30;35.30
15983;DHT22;14442;50.196;8.096;2023-02-28T15:57:49;23.40;35.40
15983;DHT22;14442;50.196;8.096;2023-02-28T16:00:20;23.40;35.40
15983;DHT22;14442;50.196;8.096;2023-02-28T16:02:48;23.40;35.50
15983;DHT22;14442;50.196;8.096;2023-02-28T16:05:25;23.30;36.20
15983;DHT22;14442;50.196;8.096;2023-02-28T16:07:58;23.30;35.60
15983;DHT22;14442;50.196;8.096;2023-02-28T16:10:27;23.30;35.60
15983;DHT22;14442;50.196;8.096;2023-02-28T16:12:55;23.30;35.60
15983;DHT22;14442;50.196;8.096;2023-02-28T16:15:24;23.20;35.50